Time;durP1;ratioP1;P1;durP2;ratioP2;P2;SDS_P1;SDS_P2;PMS_P1;PMS_P2;Temp;Humidity;BMP_temperature;BMP_pressure;BME280_temperature;BME280_humidity;BME280_pressure;Samples;Min_cycle;Max_cycle;Signal;HPM_P1;HPM_P2
2021/10/25 00:00:24;;;;;;;11.48;6.28;;;15.10;87.10;;;;;;5035319;28;20052;-73
2021/10/25 00:02:50;;;;;;;14.90;5.90;;;15.10;87.20;;;;;;5051412;28;20029;-74
2021/10/25 00:05:16;;;;;;;11.88;4.95;;;15.10;87.30;;;;;;5054425;28;20032;-74
2021/10/25 00:07:41;;;;;;;10.90;5.15;;;15.00;87.20;;;;;;5046800;28;20034;-73
2021/10/25 00:10:08;;;;;;;17.15;5.55;;;15.00;87.50;;;;;;5035344;28;20032;-74
2021/10/25 00:12:34;;;;;;;13.27;4.25;;;15.00;87.60;;;;;;5034538;28;20041;-74
2021/10/25 00:15:00;;;;;;;9.63;4.50;;;15.00;87.60;;;;;;5035539;28;20415;-74
2021/10/25 00:17:26;;;;;;;13.43;4.40;;;15.00;87.70;;;;;;5035008;28;20033;-74
2021/10/25 00:19:52;;;;;;;9.30;3.88;;;15.10;87.40;;;;;;5038056;28;20048;-74
2021/10/25 00:22:18;;;;;;;14.63;4.65;;;15.10;87.40;;;;;;5039228;28;20064;-73
2021/10/25 00:24:44;;;;;;;13.40;4.40;;;15.00;87.40;;;;;;5055277;28;20506;-74
2021/10/25 00:27:11;;;;;;;16.73;4.28;;;15.00;87.50;;;;;;5065969;28;20025;-74
2021/10/25 00:29:36;;;;;;;13.98;4.13;;;15.00;87.60;;;;;;5039192;28;20036;-74
2021/10/25 00:32:03;;;;;;;13.05;4.15;;;15.00;87.70;;;;;;5039097;28;20029;-73
2021/10/25 00:34:28;;;;;;;13.02;4.07;;;15.00;87.20;;;;;;5049074;28;20021;-74
2021/10/25 00:36:54;;;;;;;16.90;3.70;;;14.90;87.50;;;;;;5037618;28;20573;-74
2021/10/25 00:39:20;;;;;;;14.60;4.35;;;14.90;87.70;;;;;;5037806;28;20048;-74
2021/10/25 00:41:46;;;;;;;11.10;3.75;;;14.90;87.60;;;;;;5039209;28;20452;-74
2021/10/25 00:44:15;;;;;;;9.98;4.10;;;14.90;87.80;;;;;;5039092;28;20029;-74
2021/10/25 00:46:41;;;;;;;17.38;3.75;;;14.90;87.70;;;;;;5039240;28;20072;-73
2021/10/25 00:49:06;;;;;;;13.77;4.10;;;15.00;87.70;;;;;;5038362;28;20391;-74
2021/10/25 00:51:32;;;;;;;13.23;3.75;;;15.00;87.40;;;;;;5038845;28;20029;-73
2021/10/25 00:53:58;;;;;;;11.27;4.03;;;14.90;87.40;;;;;;5038896;28;20022;-74
2021/10/25 00:56:24;;;;;;;9.38;3.60;;;14.90;87.40;;;;;;5038738;28;20056;-73
2021/10/25 00:58:49;;;;;;;13.38;3.58;;;14.90;87.30;;;;;;5056072;28;20098;-73
2021/10/25 01:01:15;;;;;;;11.95;4.70;;;14.90;87.40;;;;;;5057043;28;20036;-74
2021/10/25 01:03:41;;;;;;;16.60;4.20;;;14.80;87.70;;;;;;5055765;28;20422;-73
2021/10/25 01:06:07;;;;;;;8.10;3.40;;;14.80;87.90;;;;;;5057177;28;20036;-73
2021/10/25 01:08:36;;;;;;;15.93;4.57;;;14.90;87.70;;;;;;5058374;28;20013;-74
2021/10/25 01:11:03;;;;;;;9.20;3.67;;;15.00;87.40;;;;;;5057215;28;20029;-73
2021/10/25 01:13:29;;;;;;;11.00;3.45;;;15.00;87.40;;;;;;5039362;28;20369;-73
2021/10/25 01:15:55;;;;;;;11.00;3.85;;;15.00;87.20;;;;;;5039746;28;20128;-74
2021/10/25 01:18:21;;;;;;;14.48;3.83;;;14.90;87.50;;;;;;5058065;28;20032;-74
2021/10/25 01:20:46;;;;;;;13.85;4.20;;;14.90;87.40;;;;;;5056797;28;20038;-74
2021/10/25 01:23:12;;;;;;;12.32;3.95;;;14.90;87.30;;;;;;5054089;28;20044;-73
2021/10/25 01:25:38;;;;;;;14.23;3.88;;;14.90;87.40;;;;;;5055398;28;20502;-73
2021/10/25 01:28:04;;;;;;;11.43;3.63;;;14.90;87.60;;;;;;5058022;28;20024;-74
2021/10/25 01:30:31;;;;;;;11.57;4.68;;;14.80;87.80;;;;;;5055676;28;20032;-74
2021/10/25 01:32:56;;;;;;;12.45;3.95;;;14.80;87.80;;;;;;5055341;28;20035;-73
2021/10/25 01:35:25;;;;;;;12.60;4.03;;;14.90;87.50;;;;;;5058095;28;20550;-74
2021/10/25 01:37:51;;;;;;;12.98;4.22;;;14.90;87.70;;;;;;5057968;28;20104;-74
2021/10/25 01:40:17;;;;;;;12.15;4.47;;;14.90;87.40;;;;;;5055442;28;20065;-73
2021/10/25 01:42:43;;;;;;;14.90;4.00;;;14.90;87.60;;;;;;5051760;28;20025;-73
2021/10/25 01:45:09;;;;;;;12.73;4.30;;;14.80;87.70;;;;;;5037573;28;20045;-74
2021/10/25 01:47:36;;;;;;;14.48;4.25;;;14.80;88.20;;;;;;5036164;28;20029;-74
2021/10/25 01:50:02;;;;;;;16.45;4.45;;;14.80;87.90;;;;;;5042903;28;20128;-74
2021/10/25 01:52:30;;;;;;;13.85;4.03;;;14.70;87.90;;;;;;5057660;28;20120;-73
2021/10/25 01:54:56;;;;;;;9.85;4.25;;;14.80;88.10;;;;;;5056294;28;20040;-73
2021/10/25 01:57:21;;;;;;;13.02;5.00;;;14.80;87.90;;;;;;5057493;28;20487;-73
2021/10/25 01:59:47;;;;;;;9.30;4.60;;;14.80;87.30;;;;;;5049309;28;20025;-74
2021/10/25 02:02:14;;;;;;;15.73;5.32;;;14.80;87.80;;;;;;5036206;28;20052;-73
2021/10/25 02:04:40;;;;;;;17.30;5.72;;;14.90;87.60;;;;;;5036445;28;20159;-73
2021/10/25 02:07:05;;;;;;;14.93;5.15;;;14.80;87.50;;;;;;5036028;28;20049;-73
2021/10/25 02:09:31;;;;;;;14.30;5.38;;;14.80;87.80;;;;;;5037513;28;20132;-74
2021/10/25 02:11:57;;;;;;;12.15;4.85;;;14.80;87.80;;;;;;5035933;28;20029;-73
2021/10/25 02:14:23;;;;;;;17.33;4.57;;;14.80;88.00;;;;;;5036118;28;20071;-74
2021/10/25 02:16:49;;;;;;;12.10;4.35;;;14.80;87.80;;;;;;5037108;28;20030;-73
2021/10/25 02:19:14;;;;;;;15.85;4.90;;;14.80;87.80;;;;;;5037075;28;20120;-74
2021/10/25 02:21:41;;;;;;;16.25;4.68;;;14.80;87.90;;;;;;5037045;28;20100;-74
2021/10/25 02:24:08;;;;;;;15.57;4.43;;;14.80;87.90;;;;;;5056714;28;20044;-73
2021/10/25 02:26:39;;;;;;;17.02;4.63;;;14.80;88.00;;;;;;5053958;28;20024;-74
2021/10/25 02:29:04;;;;;;;13.52;4.25;;;14.80;88.00;;;;;;5056848;28;20096;-74
2021/10/25 02:31:30;;;;;;;12.07;3.95;;;14.90;87.70;;;;;;5055472;28;20048;-74
2021/10/25 02:33:56;;;;;;;14.10;4.30;;;14.90;87.70;;;;;;5057032;28;20404;-73
2021/10/25 02:36:21;;;;;;;16.33;4.15;;;15.00;87.40;;;;;;5055480;28;20078;-73
2021/10/25 02:38:48;;;;;;;13.05;4.50;;;15.00;87.50;;;;;;5050910;28;20102;-74
2021/10/25 02:41:14;;;;;;;12.88;3.88;;;14.90;87.60;;;;;;5037165;28;20143;-73
2021/10/25 02:43:44;;;;;;;11.65;3.67;;;15.00;87.50;;;;;;5052798;28;20028;-74
2021/10/25 02:46:10;;;;;;;11.75;3.03;;;14.90;87.40;;;;;;5054933;28;20127;-73
2021/10/25 02:48:37;;;;;;;13.05;3.58;;;14.90;87.50;;;;;;5051091;28;20053;-74
2021/10/25 02:51:03;;;;;;;12.95;4.15;;;14.80;87.60;;;;;;5051848;28;20540;-74
2021/10/25 02:53:29;;;;;;;14.63;5.03;;;14.80;87.70;;;;;;5036472;28;20052;-74
2021/10/25 02:55:55;;;;;;;12.13;3.75;;;14.80;87.70;;;;;;5036555;28;20025;-73
2021/10/25 02:58:21;;;;;;;7.47;3.58;;;14.80;87.70;;;;;;5036579;28;20085;-74
2021/10/25 03:00:49;;;;;;;12.32;3.92;;;14.90;87.50;;;;;;5039294;28;20140;-73
2021/10/25 03:03:15;;;;;;;10.73;3.35;;;14.90;87.30;;;;;;5056220;28;20098;-74
2021/10/25 03:05:40;;;;;;;11.05;3.55;;;15.00;87.10;;;;;;5056222;28;20025;-74
2021/10/25 03:08:07;;;;;;;6.40;2.90;;;14.90;87.10;;;;;;5043858;28;20036;-73
2021/10/25 03:10:32;;;;;;;10.13;3.63;;;14.90;86.70;;;;;;5051560;28;20117;-74
2021/10/25 03:12:58;;;;;;;10.00;3.50;;;14.90;87.10;;;;;;5036095;28;20057;-73
2021/10/25 03:15:24;;;;;;;10.98;2.97;;;14.80;87.40;;;;;;5053653;28;20056;-73
2021/10/25 03:17:49;;;;;;;7.55;3.42;;;14.80;87.30;;;;;;5054409;28;20029;-74
2021/10/25 03:20:16;;;;;;;11.30;3.45;;;14.80;87.20;;;;;;5053166;28;20513;-73
2021/10/25 03:22:42;;;;;;;15.55;3.78;;;14.80;87.30;;;;;;5054535;28;20033;-74
2021/10/25 03:25:09;;;;;;;12.85;3.20;;;14.80;87.30;;;;;;5058887;28;20025;-73
2021/10/25 03:27:35;;;;;;;11.85;3.28;;;14.80;87.40;;;;;;5036065;28;20565;-73
2021/10/25 03:30:00;;;;;;;11.30;3.17;;;14.70;87.50;;;;;;5034216;28;20033;-74
2021/10/25 03:32:26;;;;;;;9.20;3.78;;;14.80;87.40;;;;;;5034323;28;20034;-73
2021/10/25 03:34:56;;;;;;;15.07;3.65;;;14.80;87.40;;;;;;5034442;28;20142;-74
2021/10/25 03:37:22;;;;;;;11.45;3.55;;;14.80;87.10;;;;;;5035962;28;20033;-73
2021/10/25 03:39:50;;;;;;;8.13;3.20;;;14.80;87.00;;;;;;5049449;28;20449;-73
2021/10/25 03:42:28;;;;;;;8.45;3.35;;;14.80;86.50;;;;;;5054247;28;20032;-73
2021/10/25 03:45:34;;;;;;;14.52;3.30;;;14.70;86.50;;;;;;5039769;28;20049;-73
2021/10/25 03:48:13;;;;;;;11.48;3.38;;;14.60;86.60;;;;;;5036100;28;20033;-73
2021/10/25 03:50:35;;;;;;;9.15;3.58;;;14.50;86.90;;;;;;5035349;28;20033;-73
2021/10/25 03:53:14;;;;;;;9.10;3.33;;;14.60;87.10;;;;;;5035361;28;20074;-73
2021/10/25 04:30:11;;;;;;;12.73;2.97;;;14.20;86.60;;;;;;5035113;28;20044;-73
2021/10/25 04:32:37;;;;;;;12.00;3.42;;;14.20;86.30;;;;;;5054664;28;20025;-73
2021/10/25 04:35:04;;;;;;;6.53;3.00;;;14.20;86.30;;;;;;5040926;28;20037;-74
2021/10/25 04:37:41;;;;;;;9.75;4.40;;;14.20;86.60;;;;;;5033668;28;20029;-74
2021/10/25 04:40:08;;;;;;;11.43;3.30;;;14.20;86.70;;;;;;5047623;28;20029;-73
2021/10/25 04:42:34;;;;;;;14.18;3.88;;;14.20;86.60;;;;;;5053697;28;20013;-73
2021/10/25 04:45:00;;;;;;;11.23;3.47;;;14.30;86.30;;;;;;5050093;28;20121;-73
2021/10/25 04:47:26;;;;;;;11.07;3.55;;;14.30;86.20;;;;;;5035035;28;20029;-73
2021/10/25 04:49:52;;;;;;;10.63;3.55;;;14.30;86.30;;;;;;5035176;28;20028;-73
2021/10/25 04:52:18;;;;;;;13.48;3.88;;;14.30;86.50;;;;;;5052645;28;20507;-73
2021/10/25 04:54:46;;;;;;;8.80;3.50;;;14.40;86.30;;;;;;5054915;28;20031;-74
2021/10/25 04:57:12;;;;;;;8.38;3.45;;;14.30;86.20;;;;;;5053542;28;20029;-74
2021/10/25 04:59:37;;;;;;;13.45;4.22;;;14.30;86.40;;;;;;5052544;28;20097;-73
2021/10/25 05:02:04;;;;;;;10.02;3.05;;;14.30;86.20;;;;;;5049918;28;20025;-73
2021/10/25 05:04:30;;;;;;;8.30;3.60;;;14.20;86.30;;;;;;5034965;28;20029;-73
2021/10/25 05:06:57;;;;;;;14.38;4.18;;;14.20;86.60;;;;;;5037269;28;20496;-73
2021/10/25 05:09:23;;;;;;;7.93;3.40;;;14.20;86.70;;;;;;5038560;28;20101;-73
2021/10/25 05:11:51;;;;;;;10.23;3.95;;;14.20;86.70;;;;;;5037014;28;20482;-74
2021/10/25 05:14:16;;;;;;;8.32;3.65;;;14.20;86.70;;;;;;5038180;28;20061;-73
2021/10/25 05:16:43;;;;;;;12.65;4.38;;;14.20;86.60;;;;;;5053385;28;20079;-73
2021/10/25 05:19:09;;;;;;;9.07;3.47;;;14.20;86.40;;;;;;5055719;28;20035;-73
2021/10/25 05:21:35;;;;;;;14.02;3.53;;;14.20;86.50;;;;;;5058197;28;20052;-74
2021/10/25 05:24:01;;;;;;;9.20;3.58;;;14.20;86.10;;;;;;5058177;28;20029;-73
2021/10/25 05:26:28;;;;;;;13.43;3.88;;;14.10;86.10;;;;;;5055496;28;20112;-73
2021/10/25 05:28:57;;;;;;;11.90;3.90;;;14.00;86.30;;;;;;5058334;28;20044;-74
2021/10/25 05:31:23;;;;;;;9.25;3.53;;;14.10;86.30;;;;;;5056688;28;20028;-73
2021/10/25 05:33:49;;;;;;;9.07;3.90;;;14.10;86.00;;;;;;5044397;28;20025;-74
2021/10/25 05:36:14;;;;;;;10.05;3.60;;;14.20;86.20;;;;;;5034088;28;20444;-73
2021/10/25 05:38:40;;;;;;;10.52;3.60;;;14.00;85.90;;;;;;5037841;28;20033;-73
2021/10/25 05:41:08;;;;;;;7.13;3.40;;;14.10;86.30;;;;;;5037912;28;20036;-74
2021/10/25 05:43:34;;;;;;;8.10;3.22;;;14.00;86.20;;;;;;5037743;28;20018;-74
2021/10/25 05:46:00;;;;;;;11.80;3.20;;;14.00;86.30;;;;;;5037503;28;20183;-74
2021/10/25 05:48:27;;;;;;;13.85;3.72;;;13.80;86.00;;;;;;5037521;28;20072;-73
2021/10/25 05:50:53;;;;;;;10.05;2.78;;;13.80;86.00;;;;;;5038034;28;20041;-73
2021/10/25 05:53:19;;;;;;;11.10;3.83;;;13.90;86.10;;;;;;5037595;28;20446;-74
2021/10/25 05:55:47;;;;;;;9.80;3.65;;;13.80;85.80;;;;;;5037527;28;20079;-74
2021/10/25 05:58:21;;;;;;;14.32;4.00;;;13.80;85.80;;;;;;5037749;28;20029;-73
2021/10/25 06:00:53;;;;;;;12.93;3.72;;;13.70;85.50;;;;;;5037759;28;20021;-74
2021/10/25 06:03:23;;;;;;;13.48;3.88;;;13.70;85.30;;;;;;5037691;28;20021;-73
2021/10/25 06:05:50;;;;;;;10.07;4.25;;;13.70;85.30;;;;;;5036225;28;20471;-74
2021/10/25 06:08:16;;;;;;;11.50;4.35;;;13.70;85.60;;;;;;5037503;28;20037;-74
2021/10/25 06:10:42;;;;;;;13.35;4.22;;;13.70;85.90;;;;;;5037213;28;20089;-74
2021/10/25 06:13:11;;;;;;;11.73;3.40;;;13.60;86.10;;;;;;5037406;28;20053;-73
2021/10/25 06:15:41;;;;;;;10.82;3.22;;;13.60;86.40;;;;;;5037146;28;20029;-74
2021/10/25 06:18:08;;;;;;;15.95;3.50;;;13.60;86.60;;;;;;5036903;28;20109;-73
2021/10/25 06:20:37;;;;;;;11.98;3.50;;;13.70;86.60;;;;;;5041445;28;20036;-74
2021/10/25 06:23:10;;;;;;;10.13;4.05;;;13.80;86.40;;;;;;5037059;28;20026;-73
2021/10/25 06:25:43;;;;;;;8.50;3.05;;;13.80;86.10;;;;;;5065931;28;20030;-74
2021/10/25 06:28:09;;;;;;;11.35;2.97;;;13.80;85.90;;;;;;5042524;28;20491;-73
2021/10/25 06:30:35;;;;;;;11.30;2.78;;;13.80;85.90;;;;;;5036945;28;20037;-73
2021/10/25 06:33:04;;;;;;;6.32;2.65;;;13.80;86.10;;;;;;5036777;28;20071;-74
2021/10/25 06:35:32;;;;;;;9.35;3.03;;;13.80;86.00;;;;;;5036759;28;20017;-73
2021/10/25 06:38:07;;;;;;;10.88;2.75;;;13.70;86.20;;;;;;5035525;28;20037;-73
2021/10/25 06:40:33;;;;;;;8.65;3.05;;;13.70;86.10;;;;;;5036635;28;20369;-73
2021/10/25 06:43:01;;;;;;;5.53;2.90;;;13.70;86.10;;;;;;5036655;28;20026;-73
2021/10/25 06:45:27;;;;;;;7.57;3.22;;;13.70;86.10;;;;;;5035186;28;20116;-73
2021/10/25 06:47:54;;;;;;;8.88;3.55;;;13.70;86.00;;;;;;5035227;28;20131;-74
2021/10/25 06:50:25;;;;;;;12.65;3.47;;;13.60;86.40;;;;;;5036507;28;20033;-74
2021/10/25 06:53:01;;;;;;;10.82;3.35;;;13.70;86.70;;;;;;5036472;28;20030;-74
2021/10/25 06:55:27;;;;;;;12.07;3.22;;;13.70;86.40;;;;;;5036548;28;20026;-74
2021/10/25 06:57:52;;;;;;;8.98;3.20;;;13.70;86.30;;;;;;5054018;28;20040;-74
2021/10/25 07:00:18;;;;;;;6.40;3.65;;;13.80;85.90;;;;;;5056286;28;20386;-74
2021/10/25 07:02:44;;;;;;;10.23;3.33;;;13.80;85.90;;;;;;5044883;28;20033;-74
2021/10/25 07:05:09;;;;;;;11.95;3.38;;;13.70;85.80;;;;;;5034834;28;20022;-74
2021/10/25 07:07:36;;;;;;;11.52;3.53;;;13.70;86.00;;;;;;5036204;28;20037;-74
2021/10/25 07:10:04;;;;;;;15.50;3.72;;;13.70;86.10;;;;;;5036283;28;20025;-73
2021/10/25 07:12:30;;;;;;;12.65;3.60;;;13.70;86.00;;;;;;5036324;28;20450;-73
2021/10/25 07:14:57;;;;;;;15.30;4.22;;;13.70;86.20;;;;;;5036417;28;20029;-73
2021/10/25 08:06:28;;;;;;;11.13;4.40;;;14.10;86.10;;;;;;5035662;28;20041;-73
2021/10/25 08:09:08;;;;;;;12.57;4.57;;;14.10;86.40;;;;;;5041237;28;20063;-73
2021/10/25 08:11:41;;;;;;;13.02;4.38;;;14.10;86.00;;;;;;5041707;28;20025;-73
2021/10/25 08:14:09;;;;;;;14.07;4.93;;;14.20;86.30;;;;;;5045289;28;20109;-74
2021/10/25 08:16:51;;;;;;;17.20;5.60;;;14.20;86.30;;;;;;5046993;28;20478;-73
2021/10/25 08:19:27;;;;;;;15.13;5.40;;;14.20;86.20;;;;;;5053938;28;20086;-73
2021/10/25 08:21:56;;;;;;;19.95;5.05;;;14.30;86.00;;;;;;5053933;28;20035;-74
2021/10/25 08:24:23;;;;;;;17.70;5.95;;;14.30;86.00;;;;;;5054262;28;20132;-73
2021/10/25 08:26:50;;;;;;;14.32;5.03;;;14.40;85.90;;;;;;5035320;28;20034;-74
2021/10/25 08:29:17;;;;;;;17.65;5.22;;;14.50;85.90;;;;;;5049667;28;20034;-74
2021/10/25 08:31:47;;;;;;;14.93;5.80;;;14.40;85.80;;;;;;5049622;28;20028;-73
2021/10/25 08:39:52;;;;;;;26.95;6.50;;;14.70;85.60;;;;;;5055524;28;20037;-74
2021/10/25 08:42:21;;;;;;;16.45;4.95;;;14.80;85.50;;;;;;5057663;28;20092;-74
2021/10/25 08:44:54;;;;;;;15.00;4.95;;;14.80;85.30;;;;;;5057309;28;20049;-74
2021/10/25 08:47:24;;;;;;;12.65;4.88;;;14.80;85.00;;;;;;5040903;28;20025;-73
2021/10/25 08:49:50;;;;;;;;;;;14.70;85.70;;;;;;5039295;28;20021;-74
2021/10/25 08:52:20;;;;;;;17.02;5.38;;;14.70;85.40;;;;;;5038786;28;19915;-74
2021/10/25 08:54:48;;;;;;;20.08;5.60;;;14.90;85.40;;;;;;5038030;28;20125;-74
2021/10/25 08:57:14;;;;;;;11.30;5.18;;;14.90;85.50;;;;;;5038788;28;20025;-74
2021/10/25 08:59:41;;;;;;;14.60;4.63;;;15.10;85.00;;;;;;5038800;28;20474;-74
2021/10/25 09:02:09;;;;;;;17.38;4.40;;;15.10;85.00;;;;;;5037165;28;20025;-74
2021/10/25 09:04:35;;;;;;;18.77;6.30;;;15.00;85.00;;;;;;5044333;28;20610;-74
2021/10/25 09:07:02;;;;;;;14.77;5.30;;;15.00;85.10;;;;;;5049647;28;20060;-74
2021/10/25 09:09:29;;;;;;;19.00;6.07;;;15.00;85.10;;;;;;5037325;28;20057;-74
2021/10/25 09:12:02;;;;;;;13.65;6.07;;;15.10;84.70;;;;;;5038377;28;20033;-74
2021/10/25 09:14:29;;;;;;;14.43;5.57;;;15.30;85.00;;;;;;5037101;28;20105;-74
2021/10/25 09:17:01;;;;;;;14.35;4.65;;;15.30;84.20;;;;;;5037917;28;20445;-74
2021/10/25 09:19:35;;;;;;;13.55;4.72;;;15.30;84.60;;;;;;5038372;28;20028;-74
2021/10/25 09:22:07;;;;;;;13.20;4.78;;;15.30;84.60;;;;;;5038289;28;20034;-74
2021/10/25 09:24:33;;;;;;;13.70;5.10;;;15.40;84.80;;;;;;5051017;28;20091;-74
2021/10/25 09:27:03;;;;;;;10.23;4.20;;;15.50;84.40;;;;;;5076938;28;20028;-73
2021/10/25 09:29:33;;;;;;;;;;;15.40;84.50;;;;;;5057062;28;20100;-74
2021/10/25 09:32:07;;;;;;;8.95;3.30;;;15.50;84.30;;;;;;5036805;28;19913;-73
2021/10/25 09:34:51;;;;;;;10.35;3.67;;;15.50;84.20;;;;;;5037960;28;20034;-73
2021/10/25 09:37:22;;;;;;;13.07;3.85;;;15.40;83.90;;;;;;5055345;28;20145;-74
2021/10/25 09:40:01;;;;;;;12.48;4.43;;;15.30;84.30;;;;;;5056441;28;20111;-73
2021/10/25 09:50:58;;;;;;;8.57;3.17;;;15.60;84.20;;;;;;5037712;28;20063;-74
2021/10/25 09:53:36;;;;;;;13.75;3.42;;;15.50;84.70;;;;;;5037171;28;20026;-74
2021/10/25 09:56:04;;;;;;;10.90;3.45;;;15.60;84.50;;;;;;5019830;28;20029;-74
2021/10/25 10:01:30;;;;;;;7.80;3.80;;;15.80;84.20;;;;;;5045594;28;20039;-74
2021/10/25 10:03:56;;;;;;;8.45;3.63;;;16.00;83.80;;;;;;5038179;28;20407;-74
2021/10/25 10:06:21;;;;;;;11.48;3.40;;;16.20;83.50;;;;;;5051376;28;20021;-74
2021/10/25 10:08:48;;;;;;;13.05;3.97;;;16.20;82.80;;;;;;5037493;28;20022;-74
2021/10/25 10:11:17;;;;;;;8.48;3.60;;;16.10;83.80;;;;;;5037212;28;20049;-74
2021/10/25 10:13:43;;;;;;;8.07;3.63;;;16.10;83.60;;;;;;5037334;28;20022;-74
2021/10/25 10:16:09;;;;;;;6.43;2.92;;;16.30;83.60;;;;;;5037162;28;20037;-74
2021/10/25 10:18:40;;;;;;;7.45;3.83;;;16.30;82.90;;;;;;5037161;28;20041;-74
2021/10/25 10:21:08;;;;;;;6.28;3.20;;;16.50;82.90;;;;;;5037273;28;20388;-73
2021/10/25 10:23:35;;;;;;;6.45;2.88;;;16.70;82.40;;;;;;5035805;28;20403;-74
2021/10/25 10:26:11;;;;;;;5.65;2.58;;;16.90;81.90;;;;;;5072655;28;20032;-73
2021/10/25 10:28:42;;;;;;;9.15;2.33;;;16.90;81.30;;;;;;5076957;28;20017;-74
2021/10/25 10:31:14;;;;;;;8.98;2.92;;;17.00;80.80;;;;;;5072852;28;20063;-73
2021/10/25 10:33:49;;;;;;;6.82;2.67;;;17.20;81.20;;;;;;5056806;28;20017;-74
2021/10/25 10:36:24;;;;;;;5.97;2.25;;;17.20;80.40;;;;;;5041390;28;20034;-74
2021/10/25 10:39:07;;;;;;;7.20;2.35;;;17.20;80.20;;;;;;5037056;28;20033;-74
2021/10/25 10:41:39;;;;;;;4.93;2.15;;;17.30;79.80;;;;;;5036533;28;20018;-73
2021/10/25 10:44:17;;;;;;;7.05;2.85;;;17.20;79.20;;;;;;5048473;28;20033;-74
2021/10/25 10:46:52;;;;;;;5.63;2.47;;;17.00;80.00;;;;;;5056547;28;20041;-74
2021/10/25 10:49:37;;;;;;;5.57;1.80;;;16.70;80.30;;;;;;5056740;28;20021;-74
2021/10/25 10:54:57;;;;;;;5.90;1.90;;;17.00;79.90;;;;;;5056460;28;20149;-74
2021/10/25 10:57:45;;;;;;;5.00;1.70;;;17.10;79.30;;;;;;5054812;28;20039;-74
2021/10/25 11:00:34;;;;;;;6.43;1.88;;;17.20;78.90;;;;;;5056146;28;20028;-73
2021/10/25 11:03:01;;;;;;;5.15;1.60;;;17.20;78.40;;;;;;5054158;28;20068;-73
2021/10/25 11:05:36;;;;;;;3.42;1.67;;;17.30;78.50;;;;;;5048705;28;20466;-74
2021/10/25 11:08:11;;;;;;;5.15;1.42;;;17.30;78.00;;;;;;5056313;28;20032;-74
2021/10/25 11:10:39;;;;;;;4.05;1.67;;;17.50;77.90;;;;;;5054707;28;20108;-73
2021/10/25 11:13:14;;;;;;;4.82;1.35;;;17.60;76.70;;;;;;5034636;28;20030;-74
2021/10/25 11:15:55;;;;;;;6.72;1.38;;;17.70;76.30;;;;;;5034572;28;20029;-74
2021/10/25 11:18:26;;;;;;;5.18;1.33;;;17.90;77.40;;;;;;5034740;28;20037;-74
2021/10/25 11:21:21;;;;;;;2.85;1.38;;;18.00;75.80;;;;;;5034752;28;20116;-74
2021/10/25 11:24:00;;;;;;;4.90;1.27;;;18.10;73.90;;;;;;5036081;28;20436;-74
2021/10/25 11:26:28;;;;;;;5.88;1.55;;;18.20;74.20;;;;;;5072334;28;20052;-74
2021/10/25 11:29:03;;;;;;;4.95;1.25;;;18.30;73.80;;;;;;5035700;28;20084;-73
2021/10/25 11:31:31;;;;;;;4.60;1.20;;;18.60;74.10;;;;;;5035790;28;20788;-74
2021/10/25 11:33:57;;;;;;;3.70;1.00;;;18.50;72.30;;;;;;5034535;28;20104;-74
2021/10/25 11:36:28;;;;;;;3.67;1.27;;;18.40;71.90;;;;;;5035595;28;20060;-74
2021/10/25 11:38:56;;;;;;;2.63;1.00;;;18.60;72.30;;;;;;5035734;28;20021;-73
2021/10/25 11:41:22;;;;;;;6.45;1.42;;;18.80;72.00;;;;;;5034486;28;20022;-74
2021/10/25 11:43:47;;;;;;;4.85;1.30;;;19.00;71.70;;;;;;5034049;28;20025;-74
2021/10/25 11:46:19;;;;;;;3.45;1.05;;;19.10;70.80;;;;;;5035595;28;20049;-74
2021/10/25 11:48:58;;;;;;;3.72;1.00;;;19.00;71.20;;;;;;5035715;28;20036;-74
2021/10/25 11:51:25;;;;;;;3.78;0.90;;;18.80;69.40;;;;;;5034305;28;20507;-74
2021/10/25 11:53:58;;;;;;;6.28;1.52;;;18.80;71.00;;;;;;5035791;28;20026;-73
2021/10/25 11:56:26;;;;;;;6.13;1.40;;;18.90;71.40;;;;;;5035528;28;20026;-74
2021/10/25 11:58:54;;;;;;;4.30;1.20;;;18.90;70.00;;;;;;5035547;28;20021;-73
2021/10/25 12:01:20;;;;;;;4.32;1.23;;;19.00;70.20;;;;;;5034234;28;20026;-74
2021/10/25 12:03:46;;;;;;;7.68;1.15;;;19.20;70.00;;;;;;5035336;28;20026;-74
2021/10/25 12:06:23;;;;;;;4.20;1.08;;;19.30;69.10;;;;;;5041018;28;20502;-73
2021/10/25 12:09:00;;;;;;;4.13;0.85;;;19.10;68.20;;;;;;5035750;28;20052;-74
2021/10/25 12:14:08;;;;;;;4.75;1.30;;;18.30;69.20;;;;;;5035313;28;20032;-73
2021/10/25 12:16:34;;;;;;;5.82;1.52;;;18.30;70.30;;;;;;5037359;28;20040;-74
2021/10/25 12:19:00;;;;;;;1.98;1.00;;;18.30;71.10;;;;;;5038353;28;20025;-74
2021/10/25 12:21:35;;;;;;;4.18;1.25;;;18.30;71.10;;;;;;5039526;28;20132;-74
2021/10/25 12:24:07;;;;;;;6.15;1.48;;;18.10;71.40;;;;;;5045907;28;20029;-73
2021/10/25 12:26:33;;;;;;;4.28;1.50;;;18.00;72.00;;;;;;5079290;28;20386;-74
2021/10/25 12:28:59;;;;;;;3.85;1.83;;;18.00;72.30;;;;;;5060324;28;20120;-74
2021/10/25 12:31:27;;;;;;;5.10;1.83;;;17.90;72.20;;;;;;5039098;28;20021;-74
2021/10/25 12:34:04;;;;;;;6.05;1.30;;;18.10;71.90;;;;;;5039169;28;20028;-74
2021/10/25 12:36:38;;;;;;;3.55;1.50;;;18.30;71.10;;;;;;5038913;28;20044;-74
2021/10/25 12:39:13;;;;;;;5.63;1.80;;;18.20;70.70;;;;;;5037776;28;20026;-73
2021/10/25 12:41:56;;;;;;;5.80;1.77;;;18.00;71.20;;;;;;5039072;28;20838;-73
2021/10/25 12:44:37;;;;;;;6.30;1.52;;;17.70;72.40;;;;;;5038814;28;20049;-74
2021/10/25 12:47:09;;;;;;;6.75;1.90;;;17.60;72.30;;;;;;5038990;28;20076;-74
2021/10/25 12:49:35;;;;;;;4.20;1.55;;;17.40;73.20;;;;;;5038912;28;20124;-74
2021/10/25 12:52:06;;;;;;;8.90;2.03;;;17.40;73.80;;;;;;5051746;28;20508;-74
2021/10/25 12:54:35;;;;;;;3.88;1.65;;;17.20;73.80;;;;;;5038637;28;20030;-74
2021/10/25 12:57:05;;;;;;;9.43;4.15;;;17.30;73.80;;;;;;5038707;28;20028;-74
2021/10/25 12:59:32;;;;;;;10.15;4.18;;;17.50;74.00;;;;;;5038297;28;20102;-74
2021/10/25 13:01:58;;;;;;;8.23;2.10;;;17.50;73.20;;;;;;5037606;28;20025;-74
2021/10/25 13:04:24;;;;;;;3.60;1.52;;;17.40;73.00;;;;;;5041627;28;20024;-73
2021/10/25 13:06:50;;;;;;;4.60;1.30;;;17.30;73.30;;;;;;5056234;28;20021;-74
2021/10/25 13:09:16;;;;;;;4.47;2.05;;;17.30;73.20;;;;;;5056887;28;20032;-74
2021/10/25 13:11:43;;;;;;;5.60;1.60;;;17.30;73.40;;;;;;5058579;28;20021;-73
2021/10/25 13:14:09;;;;;;;6.93;1.60;;;17.30;73.80;;;;;;5057232;28;20047;-73
2021/10/25 13:16:46;;;;;;;5.22;1.30;;;17.40;73.30;;;;;;5038421;28;20244;-74
2021/10/25 13:19:18;;;;;;;5.80;2.78;;;17.60;73.00;;;;;;5038487;28;20522;-74
2021/10/25 13:21:46;;;;;;;5.18;1.95;;;17.90;72.30;;;;;;5038287;28;20032;-73
2021/10/25 13:24:12;;;;;;;8.40;1.80;;;18.20;71.30;;;;;;5045315;28;20025;-74
2021/10/25 13:26:38;;;;;;;4.43;1.48;;;18.30;69.50;;;;;;5066111;28;20021;-73
2021/10/25 13:29:05;;;;;;;4.28;1.30;;;18.50;70.00;;;;;;5038155;28;20041;-74
2021/10/25 13:31:31;;;;;;;6.60;1.52;;;18.50;68.20;;;;;;5052817;28;20029;-74
2021/10/25 13:33:59;;;;;;;8.73;1.52;;;18.50;68.10;;;;;;5036707;28;20087;-73
2021/10/25 13:36:25;;;;;;;3.13;1.02;;;18.60;68.40;;;;;;5037999;28;20021;-73
2021/10/25 13:38:50;;;;;;;7.63;1.83;;;18.70;67.90;;;;;;5036768;28;20026;-74
2021/10/25 13:41:19;;;;;;;5.40;1.60;;;19.20;67.50;;;;;;5037854;28;20024;-74
2021/10/25 13:43:45;;;;;;;6.40;1.30;;;19.50;66.30;;;;;;5037504;28;20049;-73
2021/10/25 13:46:11;;;;;;;5.85;1.33;;;19.80;65.50;;;;;;5037726;28;20536;-74
2021/10/25 13:48:36;;;;;;;4.50;0.85;;;19.80;65.30;;;;;;5036490;28;20064;-74
2021/10/25 13:51:02;;;;;;;5.45;1.00;;;19.60;62.40;;;;;;5037887;28;20060;-74
2021/10/25 13:53:29;;;;;;;3.47;1.27;;;19.40;63.40;;;;;;5037624;28;20085;-74
2021/10/25 13:55:56;;;;;;;3.83;1.10;;;19.50;63.60;;;;;;5040611;28;20226;-73
2021/10/25 13:58:22;;;;;;;3.83;0.95;;;19.40;62.80;;;;;;5044087;28;20048;-74
2021/10/25 14:00:47;;;;;;;2.75;0.80;;;19.70;63.20;;;;;;5037492;28;20491;-74
2021/10/25 14:03:13;;;;;;;10.82;1.90;;;19.40;63.10;;;;;;5053988;28;20498;-74
2021/10/25 14:05:39;;;;;;;3.90;1.00;;;19.40;64.00;;;;;;5037324;28;20033;-74
2021/10/25 14:08:04;;;;;;;2.33;0.90;;;19.60;63.00;;;;;;5037475;28;20029;-74
2021/10/25 14:13:11;;;;;;;7.55;1.40;;;19.30;62.90;;;;;;5038065;28;20045;-73
2021/10/25 14:15:46;;;;;;;6.50;2.00;;;19.20;64.00;;;;;;5055606;28;20051;-74
2021/10/25 14:18:13;;;;;;;8.52;1.83;;;19.30;63.60;;;;;;5057230;28;20107;-74
2021/10/25 14:20:39;;;;;;;5.22;1.50;;;19.40;64.40;;;;;;5054524;28;20072;-74
2021/10/25 14:23:08;;;;;;;5.35;1.42;;;19.10;68.50;;;;;;5057040;28;20107;-74
2021/10/25 14:25:33;;;;;;;8.55;2.00;;;18.80;71.00;;;;;;5070358;28;20032;-74
2021/10/25 14:28:02;;;;;;;8.43;1.77;;;18.50;72.70;;;;;;5043077;28;20038;-74
2021/10/25 14:30:27;;;;;;;6.03;1.52;;;18.30;73.60;;;;;;5036924;28;20024;-73
2021/10/25 14:32:53;;;;;;;5.85;1.55;;;18.10;73.60;;;;;;5036867;28;20033;-73
2021/10/25 14:35:20;;;;;;;6.38;1.50;;;17.90;75.60;;;;;;5036757;28;20518;-74
2021/10/25 14:37:46;;;;;;;6.85;1.88;;;17.80;74.90;;;;;;5051870;28;20025;-73